sensor_id;sensor_type;location;lat;lon;timestamp;temperature;humidity
51011;DHT22;37038;50.182;8.624;2023-03-01T00:01:57;0.10;99.90
51011;DHT22;37038;50.182;8.624;2023-03-01T00:04:45;0.20;99.90
51011;DHT22;37038;50.182;8.624;2023-03-01T00:07:33;0.00;99.90
51011;DHT22;37038;50.182;8.624;2023-03-01T00:10:21;0.10;99.90
51011;DHT22;37038;50.182;8.624;2023-03-01T00:13:08;0.10;99.90
51011;DHT22;37038;50.182;8.624;2023-03-01T00:15:56;0.20;99.90
51011;DHT22;37038;50.182;8.624;2023-03-01T00:18:44;0.20;99.90
51011;DHT22;37038;50.182;8.624;2023-03-01T00:21:31;0.10;99.90
51011;DHT22;37038;50.182;8.624;2023-03-01T00:24:19;0.20;99.90
51011;DHT22;37038;50.182;8.624;2023-03-01T00:27:07;0.20;99.90
51011;DHT22;37038;50.182;8.624;2023-03-01T00:29:55;0.20;99.90
51011;DHT22;37038;50.182;8.624;2023-03-01T00:32:42;0.10;99.90
51011;DHT22;37038;50.182;8.624;2023-03-01T00:35:32;0.10;99.90
51011;DHT22;37038;50.182;8.624;2023-03-01T00:38:20;0.10;99.90
51011;DHT22;37038;50.182;8.624;2023-03-01T00:41:11;0.20;99.90
51011;DHT22;37038;50.182;8.624;2023-03-01T00:43:58;0.10;99.90
51011;DHT22;37038;50.182;8.624;2023-03-01T00:46:46;0.10;99.90
51011;DHT22;37038;50.182;8.624;2023-03-01T00:49:34;0.00;99.90
51011;DHT22;37038;50.182;8.624;2023-03-01T00:52:22;0.00;99.90
51011;DHT22;37038;50.182;8.624;2023-03-01T00:55:10;0.00;99.90
51011;DHT22;37038;50.182;8.624;2023-03-01T00:57:57;0.00;99.90
51011;DHT22;37038;50.182;8.624;2023-03-01T01:00:45;0.10;99.90
51011;DHT22;37038;50.182;8.624;2023-03-01T01:03:33;0.10;99.90
51011;DHT22;37038;50.182;8.624;2023-03-01T01:06:26;0.10;99.90
51011;DHT22;37038;50.182;8.624;2023-03-01T01:09:16;0.20;99.90
51011;DHT22;37038;50.182;8.624;2023-03-01T01:12:05;0.30;99.90
51011;DHT22;37038;50.182;8.624;2023-03-01T01:14:52;0.30;99.90
51011;DHT22;37038;50.182;8.624;2023-03-01T01:17:43;0.10;99.90
51011;DHT22;37038;50.182;8.624;2023-03-01T01:20:31;0.20;99.90
51011;DHT22;37038;50.182;8.624;2023-03-01T01:23:18;0.10;99.90
51011;DHT22;37038;50.182;8.624;2023-03-01T01:26:18;0.10;99.90
51011;DHT22;37038;50.182;8.624;2023-03-01T01:29:07;0.20;99.90
51011;DHT22;37038;50.182;8.624;2023-03-01T01:31:55;0.20;99.90
51011;DHT22;37038;50.182;8.624;2023-03-01T01:34:43;0.20;99.90
51011;DHT22;37038;50.182;8.624;2023-03-01T01:37:30;0.20;99.90
51011;DHT22;37038;50.182;8.624;2023-03-01T01:40:18;0.20;99.90
51011;DHT22;37038;50.182;8.624;2023-03-01T01:43:16;0.20;99.90
51011;DHT22;37038;50.182;8.624;2023-03-01T01:46:30;0.10;99.90
51011;DHT22;37038;50.182;8.624;2023-03-01T01:49:23;0.10;99.90
51011;DHT22;37038;50.182;8.624;2023-03-01T01:55:13;0.10;99.90
51011;DHT22;37038;50.182;8.624;2023-03-01T01:58:05;0.20;99.90
51011;DHT22;37038;50.182;8.624;2023-03-01T02:00:54;0.30;99.90
51011;DHT22;37038;50.182;8.624;2023-03-01T02:03:43;0.20;99.90
51011;DHT22;37038;50.182;8.624;2023-03-01T02:06:45;0.10;99.90
51011;DHT22;37038;50.182;8.624;2023-03-01T02:09:34;0.20;99.90
51011;DHT22;37038;50.182;8.624;2023-03-01T02:12:24;0.10;99.90
51011;DHT22;37038;50.182;8.624;2023-03-01T02:15:12;0.10;99.90
51011;DHT22;37038;50.182;8.624;2023-03-01T02:18:00;0.00;99.90
51011;DHT22;37038;50.182;8.624;2023-03-01T02:24:08;0.20;99.90
51011;DHT22;37038;50.182;8.624;2023-03-01T02:26:58;0.20;99.90
51011;DHT22;37038;50.182;8.624;2023-03-01T02:29:47;0.10;99.90
51011;DHT22;37038;50.182;8.624;2023-03-01T02:32:36;0.10;99.90
51011;DHT22;37038;50.182;8.624;2023-03-01T02:35:24;0.10;99.90
51011;DHT22;37038;50.182;8.624;2023-03-01T02:38:12;0.00;99.90
51011;DHT22;37038;50.182;8.624;2023-03-01T02:41:02;0.00;99.90
51011;DHT22;37038;50.182;8.624;2023-03-01T02:43:51;0.20;99.90
51011;DHT22;37038;50.182;8.624;2023-03-01T02:46:45;0.10;99.90
51011;DHT22;37038;50.182;8.624;2023-03-01T02:49:36;0.10;99.90
51011;DHT22;37038;50.182;8.624;2023-03-01T02:52:46;0.10;99.90
51011;DHT22;37038;50.182;8.624;2023-03-01T02:55:36;0.10;99.90
51011;DHT22;37038;50.182;8.624;2023-03-01T02:58:24;0.10;99.90
51011;DHT22;37038;50.182;8.624;2023-03-01T03:01:12;0.10;99.90
51011;DHT22;37038;50.182;8.624;2023-03-01T03:04:10;0.00;99.90
51011;DHT22;37038;50.182;8.624;2023-03-01T03:06:58;-0.10;99.90
51011;DHT22;37038;50.182;8.624;2023-03-01T03:09:47;-0.10;99.90
51011;DHT22;37038;50.182;8.624;2023-03-01T03:12:35;-0.10;99.90
51011;DHT22;37038;50.182;8.624;2023-03-01T03:15:23;-0.10;99.90
51011;DHT22;37038;50.182;8.624;2023-03-01T03:18:14;-0.10;99.90
51011;DHT22;37038;50.182;8.624;2023-03-01T03:21:02;-0.10;99.90
51011;DHT22;37038;50.182;8.624;2023-03-01T03:23:50;0.00;99.90
51011;DHT22;37038;50.182;8.624;2023-03-01T03:26:37;-0.10;99.90
51011;DHT22;37038;50.182;8.624;2023-03-01T03:29:25;-0.10;99.90
51011;DHT22;37038;50.182;8.624;2023-03-01T03:32:13;0.00;99.90
51011;DHT22;37038;50.182;8.624;2023-03-01T03:35:01;-0.10;99.90
51011;DHT22;37038;50.182;8.624;2023-03-01T03:37:49;-0.10;99.90
51011;DHT22;37038;50.182;8.624;2023-03-01T03:40:51;-0.10;99.90
51011;DHT22;37038;50.182;8.624;2023-03-01T03:43:40;0.00;99.90
51011;DHT22;37038;50.182;8.624;2023-03-01T03:46:29;-0.10;99.90
51011;DHT22;37038;50.182;8.624;2023-03-01T03:49:17;-0.20;99.90
51011;DHT22;37038;50.182;8.624;2023-03-01T03:52:05;-0.20;99.90
51011;DHT22;37038;50.182;8.624;2023-03-01T03:55:00;-0.20;99.90
51011;DHT22;37038;50.182;8.624;2023-03-01T03:57:48;-0.30;99.90
51011;DHT22;37038;50.182;8.624;2023-03-01T04:00:43;-0.30;99.90
51011;DHT22;37038;50.182;8.624;2023-03-01T04:03:31;-0.30;99.90
51011;DHT22;37038;50.182;8.624;2023-03-01T04:06:19;-0.30;99.90
51011;DHT22;37038;50.182;8.624;2023-03-01T04:09:07;-0.30;99.90
51011;DHT22;37038;50.182;8.624;2023-03-01T04:11:55;-0.30;99.90
51011;DHT22;37038;50.182;8.624;2023-03-01T04:14:43;-0.30;99.90
51011;DHT22;37038;50.182;8.624;2023-03-01T04:17:30;-0.30;99.90
51011;DHT22;37038;50.182;8.624;2023-03-01T04:20:20;-0.40;99.90
51011;DHT22;37038;50.182;8.624;2023-03-01T04:23:20;-0.50;99.90
51011;DHT22;37038;50.182;8.624;2023-03-01T04:26:08;-0.50;99.90
51011;DHT22;37038;50.182;8.624;2023-03-01T04:28:55;-0.50;99.90
51011;DHT22;37038;50.182;8.624;2023-03-01T04:31:43;-0.50;99.90
51011;DHT22;37038;50.182;8.624;2023-03-01T04:34:31;-0.50;99.90
51011;DHT22;37038;50.182;8.624;2023-03-01T04:37:18;-0.50;99.90
51011;DHT22;37038;50.182;8.624;2023-03-01T04:40:07;-0.60;99.90
51011;DHT22;37038;50.182;8.624;2023-03-01T04:43:04;-0.50;99.90
51011;DHT22;37038;50.182;8.624;2023-03-01T04:45:51;-0.50;99.90
51011;DHT22;37038;50.182;8.624;2023-03-01T04:48:41;-0.50;99.90
51011;DHT22;37038;50.182;8.624;2023-03-01T04:51:29;-0.60;99.90
51011;DHT22;37038;50.182;8.624;2023-03-01T04:54:16;-0.50;99.90
51011;DHT22;37038;50.182;8.624;2023-03-01T04:57:04;-0.50;99.90
51011;DHT22;37038;50.182;8.624;2023-03-01T04:59:55;-0.50;99.90
51011;DHT22;37038;50.182;8.624;2023-03-01T05:02:43;-0.50;99.90
51011;DHT22;37038;50.182;8.624;2023-03-01T05:05:37;-0.40;99.90
51011;DHT22;37038;50.182;8.624;2023-03-01T05:08:25;-0.40;99.90
51011;DHT22;37038;50.182;8.624;2023-03-01T05:11:14;-0.40;99.90
51011;DHT22;37038;50.182;8.624;2023-03-01T05:14:03;-0.30;99.90
51011;DHT22;37038;50.182;8.624;2023-03-01T05:16:50;-0.30;99.90
51011;DHT22;37038;50.182;8.624;2023-03-01T05:19:38;-0.30;99.90
51011;DHT22;37038;50.182;8.624;2023-03-01T05:22:26;-0.30;99.90
51011;DHT22;37038;50.182;8.624;2023-03-01T05:25:14;-0.20;99.90
51011;DHT22;37038;50.182;8.624;2023-03-01T05:28:03;-0.30;99.90
51011;DHT22;37038;50.182;8.624;2023-03-01T05:30:52;-0.20;99.90
51011;DHT22;37038;50.182;8.624;2023-03-01T05:33:41;-0.30;99.90
51011;DHT22;37038;50.182;8.624;2023-03-01T05:36:28;-0.30;99.90
51011;DHT22;37038;50.182;8.624;2023-03-01T05:39:17;-0.40;99.90
51011;DHT22;37038;50.182;8.624;2023-03-01T05:42:04;-0.30;99.90
51011;DHT22;37038;50.182;8.624;2023-03-01T05:44:52;-0.40;99.90
51011;DHT22;37038;50.182;8.624;2023-03-01T05:47:42;-0.30;99.90
51011;DHT22;37038;50.182;8.624;2023-03-01T05:50:36;-0.30;99.90
51011;DHT22;37038;50.182;8.624;2023-03-01T05:53:24;-0.40;99.90
51011;DHT22;37038;50.182;8.624;2023-03-01T05:56:13;-0.40;99.90
51011;DHT22;37038;50.182;8.624;2023-03-01T05:59:02;-0.40;99.90
51011;DHT22;37038;50.182;8.624;2023-03-01T06:01:50;-0.40;99.90
51011;DHT22;37038;50.182;8.624;2023-03-01T06:04:37;-0.30;99.90
51011;DHT22;37038;50.182;8.624;2023-03-01T06:07:25;-0.30;99.90
51011;DHT22;37038;50.182;8.624;2023-03-01T06:10:13;-0.40;99.90
51011;DHT22;37038;50.182;8.624;2023-03-01T06:13:01;-0.30;99.90
51011;DHT22;37038;50.182;8.624;2023-03-01T06:15:49;-0.30;99.90
51011;DHT22;37038;50.182;8.624;2023-03-01T06:18:37;-0.30;99.90
51011;DHT22;37038;50.182;8.624;2023-03-01T06:21:26;-0.30;99.90
51011;DHT22;37038;50.182;8.624;2023-03-01T06:24:14;-0.30;99.90
51011;DHT22;37038;50.182;8.624;2023-03-01T06:27:02;-0.40;99.90
51011;DHT22;37038;50.182;8.624;2023-03-01T06:29:50;-0.40;99.90
51011;DHT22;37038;50.182;8.624;2023-03-01T06:32:38;-0.40;99.90
51011;DHT22;37038;50.182;8.624;2023-03-01T06:35:29;-0.30;99.90
51011;DHT22;37038;50.182;8.624;2023-03-01T06:38:18;-0.40;99.90
51011;DHT22;37038;50.182;8.624;2023-03-01T06:41:06;-0.30;99.90
51011;DHT22;37038;50.182;8.624;2023-03-01T06:43:54;-0.10;99.90
51011;DHT22;37038;50.182;8.624;2023-03-01T06:46:41;-0.10;99.90
51011;DHT22;37038;50.182;8.624;2023-03-01T06:49:29;0.00;99.90
51011;DHT22;37038;50.182;8.624;2023-03-01T06:52:17;0.10;99.90
51011;DHT22;37038;50.182;8.624;2023-03-01T06:55:06;0.10;99.90
51011;DHT22;37038;50.182;8.624;2023-03-01T06:57:55;0.30;99.90
51011;DHT22;37038;50.182;8.624;2023-03-01T07:00:43;0.40;99.90
51011;DHT22;37038;50.182;8.624;2023-03-01T07:03:31;0.60;99.90
51011;DHT22;37038;50.182;8.624;2023-03-01T07:06:19;0.70;99.90
51011;DHT22;37038;50.182;8.624;2023-03-01T07:09:12;0.80;99.90
51011;DHT22;37038;50.182;8.624;2023-03-01T07:12:00;1.20;99.90
51011;DHT22;37038;50.182;8.624;2023-03-01T07:14:49;1.30;99.90
51011;DHT22;37038;50.182;8.624;2023-03-01T07:17:37;1.40;99.90
51011;DHT22;37038;50.182;8.624;2023-03-01T07:20:25;1.70;99.90
51011;DHT22;37038;50.182;8.624;2023-03-01T07:23:13;1.80;99.90
51011;DHT22;37038;50.182;8.624;2023-03-01T07:26:00;1.90;99.90
51011;DHT22;37038;50.182;8.624;2023-03-01T07:28:48;2.20;99.90
51011;DHT22;37038;50.182;8.624;2023-03-01T07:31:38;2.70;99.90
51011;DHT22;37038;50.182;8.624;2023-03-01T07:34:26;3.20;99.90
51011;DHT22;37038;50.182;8.624;2023-03-01T07:37:14;4.00;99.90
51011;DHT22;37038;50.182;8.624;2023-03-01T07:40:05;4.50;99.90
51011;DHT22;37038;50.182;8.624;2023-03-01T07:42:57;4.90;99.90
51011;DHT22;37038;50.182;8.624;2023-03-01T07:48:54;6.00;96.10
51011;DHT22;37038;50.182;8.624;2023-03-01T07:51:52;6.30;92.80
51011;DHT22;37038;50.182;8.624;2023-03-01T07:55:09;6.20;91.70
51011;DHT22;37038;50.182;8.624;2023-03-01T07:58:04;6.20;90.10
51011;DHT22;37038;50.182;8.624;2023-03-01T08:00:52;6.50;87.90
51011;DHT22;37038;50.182;8.624;2023-03-01T08:03:40;6.60;85.70
51011;DHT22;37038;50.182;8.624;2023-03-01T08:06:34;6.50;86.30
51011;DHT22;37038;50.182;8.624;2023-03-01T08:09:22;6.80;82.40
51011;DHT22;37038;50.182;8.624;2023-03-01T08:12:10;7.40;79.80
51011;DHT22;37038;50.182;8.624;2023-03-01T08:14:58;7.20;79.50
51011;DHT22;37038;50.182;8.624;2023-03-01T08:17:49;6.70;76.30
51011;DHT22;37038;50.182;8.624;2023-03-01T08:20:37;6.80;77.40
51011;DHT22;37038;50.182;8.624;2023-03-01T08:23:25;6.80;76.00
51011;DHT22;37038;50.182;8.624;2023-03-01T08:26:20;6.50;78.60
51011;DHT22;37038;50.182;8.624;2023-03-01T08:29:08;7.40;75.70
51011;DHT22;37038;50.182;8.624;2023-03-01T08:31:56;7.90;71.40
51011;DHT22;37038;50.182;8.624;2023-03-01T08:34:47;8.00;68.20
51011;DHT22;37038;50.182;8.624;2023-03-01T08:37:35;8.60;66.30
51011;DHT22;37038;50.182;8.624;2023-03-01T08:40:28;8.00;65.70
51011;DHT22;37038;50.182;8.624;2023-03-01T08:43:19;8.60;63.70
51011;DHT22;37038;50.182;8.624;2023-03-01T08:46:09;8.50;62.60
51011;DHT22;37038;50.182;8.624;2023-03-01T08:49:00;8.90;61.60
51011;DHT22;37038;50.182;8.624;2023-03-01T08:51:48;9.10;58.50
51011;DHT22;37038;50.182;8.624;2023-03-01T08:54:36;9.40;57.10
51011;DHT22;37038;50.182;8.624;2023-03-01T08:57:24;9.40;55.20
51011;DHT22;37038;50.182;8.624;2023-03-01T09:00:12;9.60;53.90
51011;DHT22;37038;50.182;8.624;2023-03-01T09:03:08;9.60;52.60
51011;DHT22;37038;50.182;8.624;2023-03-01T09:06:00;10.20;49.30
51011;DHT22;37038;50.182;8.624;2023-03-01T09:08:50;10.90;48.60
51011;DHT22;37038;50.182;8.624;2023-03-01T09:11:38;10.20;45.60
51011;DHT22;37038;50.182;8.624;2023-03-01T09:14:29;9.40;48.00
51011;DHT22;37038;50.182;8.624;2023-03-01T09:17:16;10.00;45.60
51011;DHT22;37038;50.182;8.624;2023-03-01T09:20:05;9.80;46.40
51011;DHT22;37038;50.182;8.624;2023-03-01T09:22:55;10.30;43.80
51011;DHT22;37038;50.182;8.624;2023-03-01T09:25:43;9.50;44.20
51011;DHT22;37038;50.182;8.624;2023-03-01T09:28:32;9.70;45.00
51011;DHT22;37038;50.182;8.624;2023-03-01T09:31:22;11.20;40.20
51011;DHT22;37038;50.182;8.624;2023-03-01T09:34:11;11.70;38.50
51011;DHT22;37038;50.182;8.624;2023-03-01T09:37:04;11.40;37.00
51011;DHT22;37038;50.182;8.624;2023-03-01T09:39:54;12.00;35.50
51011;DHT22;37038;50.182;8.624;2023-03-01T09:43:01;12.20;34.00
51011;DHT22;37038;50.182;8.624;2023-03-01T09:45:50;12.30;33.10
51011;DHT22;37038;50.182;8.624;2023-03-01T09:48:49;12.60;32.20
51011;DHT22;37038;50.182;8.624;2023-03-01T09:51:38;12.30;29.50
51011;DHT22;37038;50.182;8.624;2023-03-01T09:54:26;12.20;29.50
51011;DHT22;37038;50.182;8.624;2023-03-01T09:57:36;12.40;27.90
51011;DHT22;37038;50.182;8.624;2023-03-01T10:00:37;12.50;28.10
51011;DHT22;37038;50.182;8.624;2023-03-01T10:03:48;11.80;28.20
51011;DHT22;37038;50.182;8.624;2023-03-01T10:06:46;12.40;28.70
51011;DHT22;37038;50.182;8.624;2023-03-01T10:09:40;12.50;27.70
51011;DHT22;37038;50.182;8.624;2023-03-01T10:12:39;12.90;26.30
51011;DHT22;37038;50.182;8.624;2023-03-01T10:15:38;12.40;27.20
51011;DHT22;37038;50.182;8.624;2023-03-01T10:18:30;11.50;26.60
51011;DHT22;37038;50.182;8.624;2023-03-01T10:21:19;11.30;26.90
51011;DHT22;37038;50.182;8.624;2023-03-01T10:24:13;12.00;27.00
51011;DHT22;37038;50.182;8.624;2023-03-01T10:27:05;12.30;26.30
51011;DHT22;37038;50.182;8.624;2023-03-01T10:30:05;11.70;27.00
51011;DHT22;37038;50.182;8.624;2023-03-01T10:33:01;12.10;25.80
51011;DHT22;37038;50.182;8.624;2023-03-01T10:35:50;12.20;25.70
51011;DHT22;37038;50.182;8.624;2023-03-01T10:38:56;12.00;25.80
51011;DHT22;37038;50.182;8.624;2023-03-01T10:41:58;12.70;25.30
51011;DHT22;37038;50.182;8.624;2023-03-01T10:44:48;12.30;25.50
51011;DHT22;37038;50.182;8.624;2023-03-01T10:47:36;12.90;25.80
51011;DHT22;37038;50.182;8.624;2023-03-01T10:50:23;13.70;24.00
51011;DHT22;37038;50.182;8.624;2023-03-01T10:53:36;13.70;23.70
51011;DHT22;37038;50.182;8.624;2023-03-01T10:56:25;13.80;23.80
51011;DHT22;37038;50.182;8.624;2023-03-01T10:59:29;14.10;22.40
51011;DHT22;37038;50.182;8.624;2023-03-01T11:02:30;14.10;22.30
51011;DHT22;37038;50.182;8.624;2023-03-01T11:05:24;14.40;20.90
51011;DHT22;37038;50.182;8.624;2023-03-01T11:08:12;14.80;20.30
51011;DHT22;37038;50.182;8.624;2023-03-01T11:11:09;14.50;21.00
51011;DHT22;37038;50.182;8.624;2023-03-01T11:14:18;15.00;20.10
51011;DHT22;37038;50.182;8.624;2023-03-01T11:17:29;13.90;20.80
51011;DHT22;37038;50.182;8.624;2023-03-01T11:20:26;14.70;20.40
51011;DHT22;37038;50.182;8.624;2023-03-01T11:23:17;14.70;20.20
51011;DHT22;37038;50.182;8.624;2023-03-01T11:26:07;14.10;20.00
51011;DHT22;37038;50.182;8.624;2023-03-01T11:29:03;13.40;20.00
51011;DHT22;37038;50.182;8.624;2023-03-01T11:31:57;14.00;18.90
51011;DHT22;37038;50.182;8.624;2023-03-01T11:43:46;13.70;19.50
51011;DHT22;37038;50.182;8.624;2023-03-01T11:46:57;14.00;19.80
51011;DHT22;37038;50.182;8.624;2023-03-01T12:05:38;15.80;15.90
51011;DHT22;37038;50.182;8.624;2023-03-01T12:08:53;14.70;14.10
51011;DHT22;37038;50.182;8.624;2023-03-01T12:15:33;15.00;16.50
51011;DHT22;37038;50.182;8.624;2023-03-01T12:18:50;15.00;15.50
51011;DHT22;37038;50.182;8.624;2023-03-01T12:28:39;14.50;13.30
51011;DHT22;37038;50.182;8.624;2023-03-01T12:41:31;15.00;12.30
51011;DHT22;37038;50.182;8.624;2023-03-01T12:50:59;15.00;11.60
51011;DHT22;37038;50.182;8.624;2023-03-01T12:53:53;14.30;13.00
51011;DHT22;37038;50.182;8.624;2023-03-01T12:56:47;15.30;13.00
51011;DHT22;37038;50.182;8.624;2023-03-01T12:59:47;14.90;13.10
51011;DHT22;37038;50.182;8.624;2023-03-01T13:02:48;14.10;13.30
51011;DHT22;37038;50.182;8.624;2023-03-01T13:17:31;14.40;12.50
51011;DHT22;37038;50.182;8.624;2023-03-01T13:20:25;14.10;13.00
51011;DHT22;37038;50.182;8.624;2023-03-01T13:26:17;14.30;12.80
51011;DHT22;37038;50.182;8.624;2023-03-01T13:29:25;14.40;12.80
51011;DHT22;37038;50.182;8.624;2023-03-01T13:32:33;14.60;13.60
51011;DHT22;37038;50.182;8.624;2023-03-01T13:35:51;14.30;12.40
51011;DHT22;37038;50.182;8.624;2023-03-01T13:38:55;14.60;11.70
51011;DHT22;37038;50.182;8.624;2023-03-01T13:41:53;14.40;12.30
51011;DHT22;37038;50.182;8.624;2023-03-01T13:44:43;14.40;13.70
51011;DHT22;37038;50.182;8.624;2023-03-01T13:47:33;14.30;13.30
51011;DHT22;37038;50.182;8.624;2023-03-01T13:50:28;13.50;13.40
51011;DHT22;37038;50.182;8.624;2023-03-01T13:53:25;13.50;13.30
51011;DHT22;37038;50.182;8.624;2023-03-01T13:56:21;13.80;13.20
51011;DHT22;37038;50.182;8.624;2023-03-01T13:59:17;13.90;14.00
51011;DHT22;37038;50.182;8.624;2023-03-01T14:02:12;14.50;13.70
51011;DHT22;37038;50.182;8.624;2023-03-01T14:05:03;13.80;12.90
51011;DHT22;37038;50.182;8.624;2023-03-01T14:07:51;13.00;13.80
51011;DHT22;37038;50.182;8.624;2023-03-01T14:10:54;13.00;13.90
51011;DHT22;37038;50.182;8.624;2023-03-01T14:17:19;13.60;12.30
51011;DHT22;37038;50.182;8.624;2023-03-01T14:23:12;12.50;13.40
51011;DHT22;37038;50.182;8.624;2023-03-01T14:26:04;12.80;14.60
51011;DHT22;37038;50.182;8.624;2023-03-01T14:28:55;13.00;13.90
51011;DHT22;37038;50.182;8.624;2023-03-01T14:31:45;12.70;13.50
51011;DHT22;37038;50.182;8.624;2023-03-01T14:34:48;12.50;13.80
51011;DHT22;37038;50.182;8.624;2023-03-01T14:37:40;12.00;14.20
51011;DHT22;37038;50.182;8.624;2023-03-01T14:43:22;11.40;14.60
51011;DHT22;37038;50.182;8.624;2023-03-01T14:46:26;11.70;15.00
51011;DHT22;37038;50.182;8.624;2023-03-01T14:49:22;12.20;15.00
51011;DHT22;37038;50.182;8.624;2023-03-01T14:52:40;11.90;15.10
51011;DHT22;37038;50.182;8.624;2023-03-01T14:55:35;11.30;14.30
51011;DHT22;37038;50.182;8.624;2023-03-01T14:58:25;11.50;14.80
51011;DHT22;37038;50.182;8.624;2023-03-01T15:01:15;11.20;15.80
51011;DHT22;37038;50.182;8.624;2023-03-01T15:04:05;11.10;14.30
51011;DHT22;37038;50.182;8.624;2023-03-01T15:06:55;11.30;14.50
51011;DHT22;37038;50.182;8.624;2023-03-01T15:09:57;12.00;14.40
51011;DHT22;37038;50.182;8.624;2023-03-01T15:12:50;12.30;13.20
51011;DHT22;37038;50.182;8.624;2023-03-01T15:15:47;11.30;13.90
51011;DHT22;37038;50.182;8.624;2023-03-01T15:18:36;11.20;14.10
51011;DHT22;37038;50.182;8.624;2023-03-01T15:21:35;11.50;13.50
51011;DHT22;37038;50.182;8.624;2023-03-01T15:24:25;11.90;14.00
51011;DHT22;37038;50.182;8.624;2023-03-01T15:27:25;11.60;14.50
51011;DHT22;37038;50.182;8.624;2023-03-01T15:30:22;11.20;15.50
51011;DHT22;37038;50.182;8.624;2023-03-01T15:33:37;10.80;15.40
51011;DHT22;37038;50.182;8.624;2023-03-01T15:36:41;11.10;15.40
51011;DHT22;37038;50.182;8.624;2023-03-01T15:45:32;10.40;18.60
51011;DHT22;37038;50.182;8.624;2023-03-01T15:48:29;10.50;18.90
51011;DHT22;37038;50.182;8.624;2023-03-01T15:51:20;10.90;18.70
51011;DHT22;37038;50.182;8.624;2023-03-01T15:54:19;10.50;18.70
51011;DHT22;37038;50.182;8.624;2023-03-01T16:13:52;9.60;18.50
51011;DHT22;37038;50.182;8.624;2023-03-01T16:22:10;9.20;20.10
51011;DHT22;37038;50.182;8.624;2023-03-01T16:32:44;8.60;20.60
51011;DHT22;37038;50.182;8.624;2023-03-01T16:35:45;8.50;20.90
51011;DHT22;37038;50.182;8.624;2023-03-01T16:38:35;8.20;21.30
51011;DHT22;37038;50.182;8.624;2023-03-01T16:41:23;8.00;21.50
51011;DHT22;37038;50.182;8.624;2023-03-01T16:44:11;7.60;21.10
51011;DHT22;37038;50.182;8.624;2023-03-01T16:46:59;7.50;21.20
51011;DHT22;37038;50.182;8.624;2023-03-01T16:49:47;7.10;21.50
51011;DHT22;37038;50.182;8.624;2023-03-01T16:52:35;6.70;22.10
51011;DHT22;37038;50.182;8.624;2023-03-01T16:55:23;6.40;22.40
51011;DHT22;37038;50.182;8.624;2023-03-01T16:58:10;6.20;23.20
51011;DHT22;37038;50.182;8.624;2023-03-01T17:01:07;6.10;23.70
51011;DHT22;37038;50.182;8.624;2023-03-01T17:03:55;6.00;23.60
51011;DHT22;37038;50.182;8.624;2023-03-01T17:06:42;5.90;24.00
51011;DHT22;37038;50.182;8.624;2023-03-01T17:09:37;5.80;24.40
51011;DHT22;37038;50.182;8.624;2023-03-01T17:12:25;5.70;25.10
51011;DHT22;37038;50.182;8.624;2023-03-01T17:15:13;5.60;25.50
51011;DHT22;37038;50.182;8.624;2023-03-01T17:18:01;5.50;25.90
51011;DHT22;37038;50.182;8.624;2023-03-01T17:20:48;5.40;26.00
51011;DHT22;37038;50.182;8.624;2023-03-01T17:23:38;5.30;25.80
51011;DHT22;37038;50.182;8.624;2023-03-01T17:29:18;5.20;25.70
51011;DHT22;37038;50.182;8.624;2023-03-01T17:32:07;5.10;26.20
51011;DHT22;37038;50.182;8.624;2023-03-01T17:34:57;5.10;26.20
51011;DHT22;37038;50.182;8.624;2023-03-01T17:37:45;5.10;26.30
51011;DHT22;37038;50.182;8.624;2023-03-01T17:40:33;5.00;26.70
51011;DHT22;37038;50.182;8.624;2023-03-01T17:43:22;4.90;27.00
51011;DHT22;37038;50.182;8.624;2023-03-01T17:46:11;4.80;27.20
51011;DHT22;37038;50.182;8.624;2023-03-01T17:49:02;4.70;28.40
51011;DHT22;37038;50.182;8.624;2023-03-01T17:51:50;4.70;27.90
51011;DHT22;37038;50.182;8.624;2023-03-01T17:54:38;4.60;28.60
51011;DHT22;37038;50.182;8.624;2023-03-01T17:57:26;4.50;28.60
51011;DHT22;37038;50.182;8.624;2023-03-01T18:00:15;4.50;28.30
51011;DHT22;37038;50.182;8.624;2023-03-01T18:03:09;4.50;28.10
51011;DHT22;37038;50.182;8.624;2023-03-01T18:06:00;4.40;28.40
51011;DHT22;37038;50.182;8.624;2023-03-01T18:08:51;4.30;28.70
51011;DHT22;37038;50.182;8.624;2023-03-01T18:11:45;4.40;28.30
51011;DHT22;37038;50.182;8.624;2023-03-01T18:14:37;4.40;28.50
51011;DHT22;37038;50.182;8.624;2023-03-01T18:17:29;4.40;28.50
51011;DHT22;37038;50.182;8.624;2023-03-01T18:20:20;4.20;28.90
51011;DHT22;37038;50.182;8.624;2023-03-01T18:23:08;4.10;29.00
51011;DHT22;37038;50.182;8.624;2023-03-01T18:26:05;4.10;29.20
51011;DHT22;37038;50.182;8.624;2023-03-01T18:28:58;4.10;29.30
51011;DHT22;37038;50.182;8.624;2023-03-01T18:31:51;4.10;29.30
51011;DHT22;37038;50.182;8.624;2023-03-01T18:34:42;4.00;29.50
51011;DHT22;37038;50.182;8.624;2023-03-01T18:37:41;4.00;29.80
51011;DHT22;37038;50.182;8.624;2023-03-01T18:40:41;4.00;30.50
51011;DHT22;37038;50.182;8.624;2023-03-01T18:43:30;3.90;30.30
51011;DHT22;37038;50.182;8.624;2023-03-01T18:46:20;3.80;30.40
51011;DHT22;37038;50.182;8.624;2023-03-01T18:49:14;3.80;31.00
51011;DHT22;37038;50.182;8.624;2023-03-01T18:52:04;3.80;31.00
51011;DHT22;37038;50.182;8.624;2023-03-01T18:54:52;3.80;31.80
51011;DHT22;37038;50.182;8.624;2023-03-01T18:57:43;3.70;31.80
51011;DHT22;37038;50.182;8.624;2023-03-01T19:00:35;3.70;32.20
51011;DHT22;37038;50.182;8.624;2023-03-01T19:03:26;3.70;32.20
51011;DHT22;37038;50.182;8.624;2023-03-01T19:06:20;3.70;32.40
51011;DHT22;37038;50.182;8.624;2023-03-01T19:09:10;3.60;32.80
51011;DHT22;37038;50.182;8.624;2023-03-01T19:12:05;3.60;33.40
51011;DHT22;37038;50.182;8.624;2023-03-01T19:14:53;3.70;33.50
51011;DHT22;37038;50.182;8.624;2023-03-01T19:17:44;3.60;34.20
51011;DHT22;37038;50.182;8.624;2023-03-01T19:20:32;3.60;34.70
51011;DHT22;37038;50.182;8.624;2023-03-01T19:23:20;3.60;34.50
51011;DHT22;37038;50.182;8.624;2023-03-01T19:26:15;3.50;35.00
51011;DHT22;37038;50.182;8.624;2023-03-01T19:29:03;3.50;35.90
51011;DHT22;37038;50.182;8.624;2023-03-01T19:31:53;3.50;36.00
51011;DHT22;37038;50.182;8.624;2023-03-01T19:34:40;3.50;36.60
51011;DHT22;37038;50.182;8.624;2023-03-01T19:37:28;3.40;37.30
51011;DHT22;37038;50.182;8.624;2023-03-01T19:40:19;3.40;37.80
51011;DHT22;37038;50.182;8.624;2023-03-01T19:43:11;3.30;38.10
51011;DHT22;37038;50.182;8.624;2023-03-01T19:45:59;3.30;39.10
51011;DHT22;37038;50.182;8.624;2023-03-01T19:48:47;3.20;39.20
51011;DHT22;37038;50.182;8.624;2023-03-01T19:51:36;3.20;39.90
51011;DHT22;37038;50.182;8.624;2023-03-01T19:54:26;3.20;40.30
51011;DHT22;37038;50.182;8.624;2023-03-01T19:57:13;3.20;40.90
51011;DHT22;37038;50.182;8.624;2023-03-01T20:00:05;3.20;41.40
51011;DHT22;37038;50.182;8.624;2023-03-01T20:03:06;3.20;42.40
51011;DHT22;37038;50.182;8.624;2023-03-01T20:05:55;3.00;42.60
51011;DHT22;37038;50.182;8.624;2023-03-01T20:08:43;3.00;43.80
51011;DHT22;37038;50.182;8.624;2023-03-01T20:11:31;2.90;44.80
51011;DHT22;37038;50.182;8.624;2023-03-01T20:14:19;2.90;45.40
51011;DHT22;37038;50.182;8.624;2023-03-01T20:17:10;2.90;45.80
51011;DHT22;37038;50.182;8.624;2023-03-01T20:19:58;2.90;46.00